Metar Aviation Weather Data YMML

12°C Temp
6°C Dewpoint
% Humidity
Temperature
37 KM/H
23 MPH
20 KTS
250°
West South
West

Wind Speed
Partly Cloudy
Conditions
Pressure 1011.92 (hPa) - 29.88 (in)
Visibility 6.2 (mi) - 10 (km)

Current Conditions
YMML
Metar :YMML 120730Z 25020KT 9999 FEW035 12/06 Q1012 FM0730 24016G26KT 9999 -SHRA FEW035 SCT050 FM0930 27014KT 9999 SCT030 FM0730 MOD TURB BLW 5000FT
Tue 12th November 17:30 pm

  Metar Aviation API Data Provided by https://www.checkwx.com/ PHP scripts by weather34.com ©2019